sensor_id;sensor_type;location;lat;lon;timestamp;pressure;altitude;pressure_sealevel;temperature;humidity
32131;BME280;18639;50.716;7.086;2024-03-25T00:01:25;99630.56;;;6.76;100.00
32131;BME280;18639;50.716;7.086;2024-03-25T00:04:20;99627.63;;;6.82;100.00
32131;BME280;18639;50.716;7.086;2024-03-25T00:06:51;99586.41;;;6.57;100.00
32131;BME280;18639;50.716;7.086;2024-03-25T00:09:20;99573.00;;;6.52;100.00
32131;BME280;18639;50.716;7.086;2024-03-25T00:11:53;99584.91;;;6.53;100.00
32131;BME280;18639;50.716;7.086;2024-03-25T00:15:07;99595.63;;;6.59;100.00
32131;BME280;18639;50.716;7.086;2024-03-25T00:18:09;99648.53;;;6.90;100.00
32131;BME280;18639;50.716;7.086;2024-03-25T00:26:57;99588.38;;;6.52;100.00
32131;BME280;18639;50.716;7.086;2024-03-25T00:29:22;99633.88;;;6.78;100.00
32131;BME280;18639;50.716;7.086;2024-03-25T00:31:47;99581.25;;;6.43;100.00
32131;BME280;18639;50.716;7.086;2024-03-25T00:34:13;99602.88;;;6.53;100.00
32131;BME280;18639;50.716;7.086;2024-03-25T00:36:38;99591.31;;;6.31;100.00
32131;BME280;18639;50.716;7.086;2024-03-25T00:39:03;99558.88;;;6.16;100.00
32131;BME280;18639;50.716;7.086;2024-03-25T00:41:32;99570.81;;;6.17;100.00
32131;BME280;18639;50.716;7.086;2024-03-25T00:43:57;99633.88;;;6.50;100.00
32131;BME280;18639;50.716;7.086;2024-03-25T00:46:30;99648.72;;;6.59;100.00
32131;BME280;18639;50.716;7.086;2024-03-25T00:48:55;99587.31;;;6.27;100.00
32131;BME280;18639;50.716;7.086;2024-03-25T00:51:20;99597.84;;;6.37;100.00
32131;BME280;18639;50.716;7.086;2024-03-25T00:53:46;99615.16;;;6.48;100.00
32131;BME280;18639;50.716;7.086;2024-03-25T00:56:11;99616.63;;;6.52;100.00
32131;BME280;18639;50.716;7.086;2024-03-25T00:58:36;99596.66;;;6.43;100.00
32131;BME280;18639;50.716;7.086;2024-03-25T01:01:02;99614.81;;;6.54;100.00
32131;BME280;18639;50.716;7.086;2024-03-25T01:03:27;99619.94;;;6.54;100.00
32131;BME280;18639;50.716;7.086;2024-03-25T01:05:52;99611.88;;;6.46;100.00
32131;BME280;18639;50.716;7.086;2024-03-25T01:08:19;99613.50;;;6.47;100.00
32131;BME280;18639;50.716;7.086;2024-03-25T01:10:45;99614.53;;;6.44;100.00
32131;BME280;18639;50.716;7.086;2024-03-25T01:13:10;99616.06;;;6.32;100.00
32131;BME280;18639;50.716;7.086;2024-03-25T01:15:35;99608.84;;;6.25;100.00
32131;BME280;18639;50.716;7.086;2024-03-25T01:18:01;99613.16;;;6.24;100.00
32131;BME280;18639;50.716;7.086;2024-03-25T01:20:26;99610.38;;;6.13;100.00
32131;BME280;18639;50.716;7.086;2024-03-25T01:22:51;99614.50;;;6.16;100.00
32131;BME280;18639;50.716;7.086;2024-03-25T01:25:17;99601.38;;;6.06;100.00
32131;BME280;18639;50.716;7.086;2024-03-25T01:27:42;99610.38;;;6.13;100.00
32131;BME280;18639;50.716;7.086;2024-03-25T01:30:07;99609.47;;;6.14;100.00
32131;BME280;18639;50.716;7.086;2024-03-25T01:32:33;99610.19;;;6.16;100.00
32131;BME280;18639;50.716;7.086;2024-03-25T01:34:58;99613.66;;;6.15;100.00
32131;BME280;18639;50.716;7.086;2024-03-25T01:37:24;99599.00;;;6.03;100.00
32131;BME280;18639;50.716;7.086;2024-03-25T01:39:49;99589.81;;;5.99;100.00
32131;BME280;18639;50.716;7.086;2024-03-25T01:42:14;99612.75;;;6.16;100.00
32131;BME280;18639;50.716;7.086;2024-03-25T01:44:40;99604.91;;;6.19;100.00
32131;BME280;18639;50.716;7.086;2024-03-25T01:47:05;99610.03;;;6.19;100.00
32131;BME280;18639;50.716;7.086;2024-03-25T01:49:31;99614.13;;;6.22;100.00
32131;BME280;18639;50.716;7.086;2024-03-25T01:51:57;99619.66;;;6.30;100.00
32131;BME280;18639;50.716;7.086;2024-03-25T01:54:23;99604.44;;;6.27;100.00
32131;BME280;18639;50.716;7.086;2024-03-25T01:56:49;99601.03;;;6.26;100.00
32131;BME280;18639;50.716;7.086;2024-03-25T01:59:15;99587.47;;;6.10;100.00
32131;BME280;18639;50.716;7.086;2024-03-25T02:01:43;99594.69;;;6.04;100.00
32131;BME280;18639;50.716;7.086;2024-03-25T02:04:08;99580.13;;;6.04;100.00
32131;BME280;18639;50.716;7.086;2024-03-25T02:06:35;99621.28;;;6.17;100.00
32131;BME280;18639;50.716;7.086;2024-03-25T02:09:01;99619.47;;;6.19;100.00
32131;BME280;18639;50.716;7.086;2024-03-25T02:11:28;99619.47;;;6.19;100.00
32131;BME280;18639;50.716;7.086;2024-03-25T02:13:53;99627.88;;;6.21;100.00
32131;BME280;18639;50.716;7.086;2024-03-25T02:16:18;99636.22;;;6.24;100.00
32131;BME280;18639;50.716;7.086;2024-03-25T02:18:43;99613.50;;;6.18;100.00
32131;BME280;18639;50.716;7.086;2024-03-25T02:21:09;99624.88;;;6.28;100.00
32131;BME280;18639;50.716;7.086;2024-03-25T02:23:35;99610.09;;;6.18;100.00
32131;BME280;18639;50.716;7.086;2024-03-25T02:26:03;99614.97;;;6.22;100.00
32131;BME280;18639;50.716;7.086;2024-03-25T02:28:41;99575.38;;;5.98;100.00
32131;BME280;18639;50.716;7.086;2024-03-25T02:31:06;99570.75;;;5.89;100.00
32131;BME280;18639;50.716;7.086;2024-03-25T02:33:34;99609.56;;;6.13;100.00
32131;BME280;18639;50.716;7.086;2024-03-25T02:36:00;99610.66;;;6.09;100.00
32131;BME280;18639;50.716;7.086;2024-03-25T02:38:25;99599.00;;;6.03;100.00
32131;BME280;18639;50.716;7.086;2024-03-25T02:40:51;99630.53;;;6.19;100.00
32131;BME280;18639;50.716;7.086;2024-03-25T02:43:17;99627.31;;;6.16;100.00
32131;BME280;18639;50.716;7.086;2024-03-25T02:46:00;99636.03;;;6.13;100.00
32131;BME280;18639;50.716;7.086;2024-03-25T02:48:26;99566.97;;;5.80;100.00
32131;BME280;18639;50.716;7.086;2024-03-25T02:50:51;99570.63;;;5.76;100.00
32131;BME280;18639;50.716;7.086;2024-03-25T02:53:16;99612.38;;;6.08;100.00
32131;BME280;18639;50.716;7.086;2024-03-25T02:55:42;99627.78;;;6.08;100.00
32131;BME280;18639;50.716;7.086;2024-03-25T03:00:57;99615.66;;;5.96;100.00
32131;BME280;18639;50.716;7.086;2024-03-25T03:03:23;99601.13;;;5.81;100.00
32131;BME280;18639;50.716;7.086;2024-03-25T03:05:48;99616.91;;;5.89;100.00
32131;BME280;18639;50.716;7.086;2024-03-25T03:08:13;99601.38;;;5.76;100.00
32131;BME280;18639;50.716;7.086;2024-03-25T03:10:38;99617.41;;;5.80;100.00
32131;BME280;18639;50.716;7.086;2024-03-25T03:13:04;99586.75;;;5.63;100.00
32131;BME280;18639;50.716;7.086;2024-03-25T03:15:29;99610.81;;;5.76;100.00
32131;BME280;18639;50.716;7.086;2024-03-25T03:17:54;99572.06;;;5.50;100.00
32131;BME280;18639;50.716;7.086;2024-03-25T03:23:46;99576.47;;;5.48;100.00
32131;BME280;18639;50.716;7.086;2024-03-25T03:32:34;99581.94;;;5.42;100.00
32131;BME280;18639;50.716;7.086;2024-03-25T03:34:59;99610.59;;;5.65;100.00
32131;BME280;18639;50.716;7.086;2024-03-25T03:37:24;99610.41;;;5.68;100.00
32131;BME280;18639;50.716;7.086;2024-03-25T03:39:50;99597.34;;;5.57;100.00
32131;BME280;18639;50.716;7.086;2024-03-25T03:42:15;99605.63;;;5.62;100.00
32131;BME280;18639;50.716;7.086;2024-03-25T03:44:40;99601.00;;;5.53;100.00
32131;BME280;18639;50.716;7.086;2024-03-25T03:47:06;99562.22;;;5.29;100.00
32131;BME280;18639;50.716;7.086;2024-03-25T03:49:31;99616.31;;;5.54;100.00
32131;BME280;18639;50.716;7.086;2024-03-25T03:51:56;99602.44;;;5.42;100.00
32131;BME280;18639;50.716;7.086;2024-03-25T03:54:22;99599.88;;;5.42;100.00
32131;BME280;18639;50.716;7.086;2024-03-25T03:56:47;99606.06;;;5.54;100.00
32131;BME280;18639;50.716;7.086;2024-03-25T03:59:13;99598.97;;;5.43;100.00
32131;BME280;18639;50.716;7.086;2024-03-25T04:01:38;99604.75;;;5.47;100.00
32131;BME280;18639;50.716;7.086;2024-03-25T04:04:04;99616.66;;;5.48;100.00
32131;BME280;18639;50.716;7.086;2024-03-25T04:06:30;99601.59;;;5.42;100.00
32131;BME280;18639;50.716;7.086;2024-03-25T04:08:55;99615.06;;;5.45;100.00
32131;BME280;18639;50.716;7.086;2024-03-25T04:11:20;99573.22;;;5.15;100.00
32131;BME280;18639;50.716;7.086;2024-03-25T04:13:46;99613.59;;;5.41;100.00
32131;BME280;18639;50.716;7.086;2024-03-25T04:16:12;99612.75;;;5.41;100.00
32131;BME280;18639;50.716;7.086;2024-03-25T04:18:37;99607.56;;;5.42;100.00
32131;BME280;18639;50.716;7.086;2024-03-25T04:21:03;99579.81;;;5.19;100.00
32131;BME280;18639;50.716;7.086;2024-03-25T04:23:29;99563.72;;;5.17;100.00
32131;BME280;18639;50.716;7.086;2024-03-25T04:26:01;99576.00;;;5.26;100.00
32131;BME280;18639;50.716;7.086;2024-03-25T04:28:28;99617.16;;;5.39;100.00
32131;BME280;18639;50.716;7.086;2024-03-25T04:30:54;99568.44;;;5.09;100.00
32131;BME280;18639;50.716;7.086;2024-03-25T04:33:19;99613.19;;;5.33;100.00
32131;BME280;18639;50.716;7.086;2024-03-25T04:35:46;99609.06;;;5.31;100.00
32131;BME280;18639;50.716;7.086;2024-03-25T04:38:11;99605.84;;;5.27;100.00
32131;BME280;18639;50.716;7.086;2024-03-25T04:40:37;99598.81;;;5.15;100.00
32131;BME280;18639;50.716;7.086;2024-03-25T04:43:02;99604.94;;;5.13;100.00
32131;BME280;18639;50.716;7.086;2024-03-25T04:45:27;99595.44;;;4.99;100.00
32131;BME280;18639;50.716;7.086;2024-03-25T04:47:53;99610.88;;;4.97;100.00
32131;BME280;18639;50.716;7.086;2024-03-25T04:50:18;99600.31;;;4.88;100.00
32131;BME280;18639;50.716;7.086;2024-03-25T04:52:43;99586.97;;;4.65;100.00
32131;BME280;18639;50.716;7.086;2024-03-25T04:55:08;99612.59;;;4.81;100.00
32131;BME280;18639;50.716;7.086;2024-03-25T04:57:34;99608.78;;;4.73;100.00
32131;BME280;18639;50.716;7.086;2024-03-25T04:59:59;99613.16;;;4.71;100.00
32131;BME280;18639;50.716;7.086;2024-03-25T05:02:24;99630.66;;;4.62;100.00
32131;BME280;18639;50.716;7.086;2024-03-25T05:04:50;99620.72;;;4.56;100.00
32131;BME280;18639;50.716;7.086;2024-03-25T05:07:15;99630.78;;;4.59;100.00
32131;BME280;18639;50.716;7.086;2024-03-25T05:09:40;99627.81;;;4.51;100.00
32131;BME280;18639;50.716;7.086;2024-03-25T05:12:06;99629.63;;;4.49;100.00
32131;BME280;18639;50.716;7.086;2024-03-25T05:14:31;99624.84;;;4.43;100.00
32131;BME280;18639;50.716;7.086;2024-03-25T05:16:56;99623.31;;;4.39;100.00
32131;BME280;18639;50.716;7.086;2024-03-25T05:19:22;99611.97;;;4.28;100.00
32131;BME280;18639;50.716;7.086;2024-03-25T05:21:47;99628.59;;;4.36;100.00
32131;BME280;18639;50.716;7.086;2024-03-25T05:24:12;99628.59;;;4.36;100.00
32131;BME280;18639;50.716;7.086;2024-03-25T05:26:38;99625.44;;;4.31;100.00
32131;BME280;18639;50.716;7.086;2024-03-25T05:29:03;99617.03;;;4.29;100.00
32131;BME280;18639;50.716;7.086;2024-03-25T05:31:28;99624.84;;;4.26;100.00
32131;BME280;18639;50.716;7.086;2024-03-25T05:33:53;99610.72;;;4.19;100.00
32131;BME280;18639;50.716;7.086;2024-03-25T05:36:19;99628.25;;;4.27;100.00
32131;BME280;18639;50.716;7.086;2024-03-25T05:38:44;99627.56;;;4.23;100.00
32131;BME280;18639;50.716;7.086;2024-03-25T05:41:10;99620.34;;;4.14;100.00
32131;BME280;18639;50.716;7.086;2024-03-25T05:43:36;99631.84;;;4.22;100.00
32131;BME280;18639;50.716;7.086;2024-03-25T05:46:01;99633.44;;;4.25;100.00
32131;BME280;18639;50.716;7.086;2024-03-25T05:48:27;99630.88;;;4.25;100.00
32131;BME280;18639;50.716;7.086;2024-03-25T05:51:02;99634.31;;;4.24;100.00
32131;BME280;18639;50.716;7.086;2024-03-25T05:53:28;99627.06;;;4.16;100.00
32131;BME280;18639;50.716;7.086;2024-03-25T05:55:54;99621.25;;;4.13;100.00
32131;BME280;18639;50.716;7.086;2024-03-25T05:58:19;99636.94;;;4.22;100.00
32131;BME280;18639;50.716;7.086;2024-03-25T06:00:48;99643.59;;;4.27;100.00
32131;BME280;18639;50.716;7.086;2024-03-25T06:03:14;99633.19;;;4.30;100.00
32131;BME280;18639;50.716;7.086;2024-03-25T06:05:40;99615.47;;;4.27;100.00
32131;BME280;18639;50.716;7.086;2024-03-25T06:08:06;99637.63;;;4.43;100.00
32131;BME280;18639;50.716;7.086;2024-03-25T06:10:36;99621.66;;;4.38;100.00
32131;BME280;18639;50.716;7.086;2024-03-25T06:13:02;99634.91;;;4.46;100.00
32131;BME280;18639;50.716;7.086;2024-03-25T06:15:27;99637.88;;;4.54;100.00
32131;BME280;18639;50.716;7.086;2024-03-25T06:17:52;99640.28;;;4.57;100.00
32131;BME280;18639;50.716;7.086;2024-03-25T06:20:17;99631.56;;;4.61;100.00
32131;BME280;18639;50.716;7.086;2024-03-25T06:22:43;99625.22;;;4.69;100.00
32131;BME280;18639;50.716;7.086;2024-03-25T06:25:08;99634.13;;;4.77;100.00
32131;BME280;18639;50.716;7.086;2024-03-25T06:27:33;99628.88;;;4.80;100.00
32131;BME280;18639;50.716;7.086;2024-03-25T06:29:58;99632.50;;;4.92;100.00
32131;BME280;18639;50.716;7.086;2024-03-25T06:32:44;99639.13;;;4.96;100.00
32131;BME280;18639;50.716;7.086;2024-03-25T06:35:27;99642.75;;;5.07;100.00
32131;BME280;18639;50.716;7.086;2024-03-25T06:37:53;99623.78;;;5.12;100.00
32131;BME280;18639;50.716;7.086;2024-03-25T06:40:18;99636.72;;;5.24;100.00
32131;BME280;18639;50.716;7.086;2024-03-25T06:42:43;99633.84;;;5.30;100.00
32131;BME280;18639;50.716;7.086;2024-03-25T06:45:09;99648.38;;;5.45;100.00
32131;BME280;18639;50.716;7.086;2024-03-25T06:47:34;99649.88;;;5.49;100.00
32131;BME280;18639;50.716;7.086;2024-03-25T06:50:00;99643.31;;;5.60;100.00
32131;BME280;18639;50.716;7.086;2024-03-25T06:52:25;99644.81;;;5.64;100.00
32131;BME280;18639;50.716;7.086;2024-03-25T06:54:50;99638.59;;;5.68;100.00
32131;BME280;18639;50.716;7.086;2024-03-25T06:57:15;99637.59;;;5.70;100.00
32131;BME280;18639;50.716;7.086;2024-03-25T06:59:41;99636.00;;;5.83;100.00
32131;BME280;18639;50.716;7.086;2024-03-25T07:02:06;99639.81;;;5.92;100.00
32131;BME280;18639;50.716;7.086;2024-03-25T07:04:32;99629.78;;;6.03;100.00
32131;BME280;18639;50.716;7.086;2024-03-25T07:06:57;99646.28;;;6.13;100.00
32131;BME280;18639;50.716;7.086;2024-03-25T07:09:23;99647.31;;;6.25;100.00
32131;BME280;18639;50.716;7.086;2024-03-25T07:11:49;99645.75;;;6.37;100.00
32131;BME280;18639;50.716;7.086;2024-03-25T07:14:14;99638.38;;;6.46;100.00
32131;BME280;18639;50.716;7.086;2024-03-25T07:16:40;99632.41;;;6.60;100.00
32131;BME280;18639;50.716;7.086;2024-03-25T07:19:05;99651.38;;;6.86;100.00
32131;BME280;18639;50.716;7.086;2024-03-25T07:21:31;99649.97;;;7.08;100.00
32131;BME280;18639;50.716;7.086;2024-03-25T07:23:56;99640.69;;;7.20;100.00
32131;BME280;18639;50.716;7.086;2024-03-25T07:26:21;99649.19;;;7.35;100.00
32131;BME280;18639;50.716;7.086;2024-03-25T07:28:47;99645.47;;;7.53;100.00
32131;BME280;18639;50.716;7.086;2024-03-25T07:31:12;99625.19;;;7.48;100.00
32131;BME280;18639;50.716;7.086;2024-03-25T07:33:37;99647.38;;;7.76;100.00
32131;BME280;18639;50.716;7.086;2024-03-25T07:36:03;99638.97;;;7.74;100.00
32131;BME280;18639;50.716;7.086;2024-03-25T07:38:28;99641.56;;;7.87;100.00
32131;BME280;18639;50.716;7.086;2024-03-25T07:40:53;99645.31;;;7.95;100.00
32131;BME280;18639;50.716;7.086;2024-03-25T07:43:19;99649.94;;;8.03;100.00
32131;BME280;18639;50.716;7.086;2024-03-25T07:45:44;99654.59;;;8.11;100.00
32131;BME280;18639;50.716;7.086;2024-03-25T07:48:10;99630.50;;;8.12;100.00
32131;BME280;18639;50.716;7.086;2024-03-25T07:50:35;99648.88;;;8.32;100.00
32131;BME280;18639;50.716;7.086;2024-03-25T07:53:01;99646.59;;;8.40;100.00
32131;BME280;18639;50.716;7.086;2024-03-25T07:55:26;99613.13;;;8.28;100.00
32131;BME280;18639;50.716;7.086;2024-03-25T07:57:51;99646.00;;;8.62;100.00
32131;BME280;18639;50.716;7.086;2024-03-25T08:00:17;99641.44;;;8.66;100.00
32131;BME280;18639;50.716;7.086;2024-03-25T08:02:42;99634.75;;;8.63;100.00
32131;BME280;18639;50.716;7.086;2024-03-25T08:05:07;99634.44;;;8.80;100.00
32131;BME280;18639;50.716;7.086;2024-03-25T08:07:33;99630.31;;;8.91;100.00
32131;BME280;18639;50.716;7.086;2024-03-25T08:09:59;99644.53;;;9.20;100.00
32131;BME280;18639;50.716;7.086;2024-03-25T08:12:24;99634.47;;;9.41;100.00
32131;BME280;18639;50.716;7.086;2024-03-25T08:14:49;99610.50;;;9.51;100.00
32131;BME280;18639;50.716;7.086;2024-03-25T08:17:14;99634.38;;;10.01;100.00
32131;BME280;18639;50.716;7.086;2024-03-25T08:19:40;99623.78;;;10.17;100.00
32131;BME280;18639;50.716;7.086;2024-03-25T08:22:05;99631.00;;;10.46;99.41
32131;BME280;18639;50.716;7.086;2024-03-25T08:24:30;99622.50;;;10.33;94.35
32131;BME280;18639;50.716;7.086;2024-03-25T08:26:55;99640.38;;;10.59;91.67
32131;BME280;18639;50.716;7.086;2024-03-25T08:29:21;99636.41;;;10.66;90.90
32131;BME280;18639;50.716;7.086;2024-03-25T08:31:46;99627.38;;;10.71;89.46
32131;BME280;18639;50.716;7.086;2024-03-25T08:34:11;99618.22;;;10.89;88.48
32131;BME280;18639;50.716;7.086;2024-03-25T08:36:36;99622.50;;;11.11;90.20
32131;BME280;18639;50.716;7.086;2024-03-25T08:39:02;99620.88;;;11.53;91.18
32131;BME280;18639;50.716;7.086;2024-03-25T08:41:27;99596.91;;;11.83;87.79
32131;BME280;18639;50.716;7.086;2024-03-25T08:43:52;99630.00;;;12.42;86.50
32131;BME280;18639;50.716;7.086;2024-03-25T08:46:18;99590.50;;;12.89;83.44
32131;BME280;18639;50.716;7.086;2024-03-25T08:48:43;99619.88;;;13.78;79.60
32131;BME280;18639;50.716;7.086;2024-03-25T08:51:08;99619.59;;;13.90;71.93
32131;BME280;18639;50.716;7.086;2024-03-25T08:53:33;99625.75;;;13.99;68.96
32131;BME280;18639;50.716;7.086;2024-03-25T08:55:59;99625.63;;;14.94;67.75
32131;BME280;18639;50.716;7.086;2024-03-25T08:58:24;99586.28;;;15.24;64.46
32131;BME280;18639;50.716;7.086;2024-03-25T09:00:49;99610.44;;;15.79;61.43
32131;BME280;18639;50.716;7.086;2024-03-25T09:03:14;99613.25;;;15.86;60.51
32131;BME280;18639;50.716;7.086;2024-03-25T09:05:40;99617.53;;;16.38;59.05
32131;BME280;18639;50.716;7.086;2024-03-25T09:08:06;99603.09;;;16.78;54.27
32131;BME280;18639;50.716;7.086;2024-03-25T09:10:31;99593.00;;;16.57;53.27
32131;BME280;18639;50.716;7.086;2024-03-25T09:13:15;99591.53;;;16.89;53.57
32131;BME280;18639;50.716;7.086;2024-03-25T09:15:41;99595.19;;;17.78;53.14
32131;BME280;18639;50.716;7.086;2024-03-25T09:18:06;99595.31;;;17.85;49.38
32131;BME280;18639;50.716;7.086;2024-03-25T09:20:32;99573.75;;;17.91;49.09
32131;BME280;18639;50.716;7.086;2024-03-25T09:22:57;99583.31;;;18.47;48.32
32131;BME280;18639;50.716;7.086;2024-03-25T09:25:23;99580.69;;;18.47;48.04
32131;BME280;18639;50.716;7.086;2024-03-25T09:27:48;99579.50;;;18.74;46.69
32131;BME280;18639;50.716;7.086;2024-03-25T09:30:14;99563.81;;;17.86;47.52
32131;BME280;18639;50.716;7.086;2024-03-25T09:32:41;99558.59;;;17.94;46.81
32131;BME280;18639;50.716;7.086;2024-03-25T09:35:08;99552.13;;;18.84;48.18
32131;BME280;18639;50.716;7.086;2024-03-25T09:37:33;99560.66;;;19.09;45.16
32131;BME280;18639;50.716;7.086;2024-03-25T09:39:59;99567.50;;;19.64;44.58
32131;BME280;18639;50.716;7.086;2024-03-25T09:42:26;99554.38;;;19.41;43.53
32131;BME280;18639;50.716;7.086;2024-03-25T09:44:56;99553.16;;;19.06;42.48
32131;BME280;18639;50.716;7.086;2024-03-25T09:47:25;99545.09;;;18.77;42.93
32131;BME280;18639;50.716;7.086;2024-03-25T09:49:51;99537.69;;;18.88;44.05
32131;BME280;18639;50.716;7.086;2024-03-25T09:52:19;99558.34;;;18.75;44.14
32131;BME280;18639;50.716;7.086;2024-03-25T09:54:45;99528.00;;;17.38;43.98
32131;BME280;18639;50.716;7.086;2024-03-25T09:57:10;99549.72;;;18.12;45.92
32131;BME280;18639;50.716;7.086;2024-03-25T09:59:36;99553.09;;;18.36;45.04
32131;BME280;18639;50.716;7.086;2024-03-25T10:02:02;99550.75;;;17.94;43.99
32131;BME280;18639;50.716;7.086;2024-03-25T10:04:29;99536.03;;;17.93;43.67
32131;BME280;18639;50.716;7.086;2024-03-25T10:06:54;99527.00;;;18.20;44.05
32131;BME280;18639;50.716;7.086;2024-03-25T10:09:20;99511.00;;;18.54;44.81
32131;BME280;18639;50.716;7.086;2024-03-25T10:11:49;99504.03;;;18.38;44.79
32131;BME280;18639;50.716;7.086;2024-03-25T10:14:15;99532.50;;;18.33;42.03
32131;BME280;18639;50.716;7.086;2024-03-25T10:16:41;99534.72;;;18.05;44.72
32131;BME280;18639;50.716;7.086;2024-03-25T10:19:07;99510.69;;;18.02;43.15
32131;BME280;18639;50.716;7.086;2024-03-25T10:21:33;99520.03;;;17.64;41.65
32131;BME280;18639;50.716;7.086;2024-03-25T10:23:58;99522.16;;;17.77;42.62
32131;BME280;18639;50.716;7.086;2024-03-25T10:26:33;99506.97;;;17.72;42.17
32131;BME280;18639;50.716;7.086;2024-03-25T10:29:05;99511.22;;;17.57;42.20
32131;BME280;18639;50.716;7.086;2024-03-25T10:31:34;99487.88;;;17.63;43.70
32131;BME280;18639;50.716;7.086;2024-03-25T10:33:59;99486.38;;;17.69;44.48
32131;BME280;18639;50.716;7.086;2024-03-25T10:36:25;99505.34;;;17.71;44.75
32131;BME280;18639;50.716;7.086;2024-03-25T10:38:57;99477.22;;;16.92;45.54
32131;BME280;18639;50.716;7.086;2024-03-25T10:41:27;99498.06;;;16.42;47.87
32131;BME280;18639;50.716;7.086;2024-03-25T10:43:53;99448.09;;;16.55;48.73
32131;BME280;18639;50.716;7.086;2024-03-25T10:46:20;99460.53;;;16.69;48.36
32131;BME280;18639;50.716;7.086;2024-03-25T10:48:55;99443.50;;;16.49;47.32
32131;BME280;18639;50.716;7.086;2024-03-25T10:51:24;99492.16;;;15.98;48.49
32131;BME280;18639;50.716;7.086;2024-03-25T10:53:52;99486.56;;;15.85;50.00
32131;BME280;18639;50.716;7.086;2024-03-25T10:56:20;99486.44;;;15.51;51.70
32131;BME280;18639;50.716;7.086;2024-03-25T10:58:48;99463.22;;;15.14;51.68
32131;BME280;18639;50.716;7.086;2024-03-25T11:01:13;99476.66;;;14.92;52.57
32131;BME280;18639;50.716;7.086;2024-03-25T11:03:40;99453.88;;;14.58;53.85
32131;BME280;18639;50.716;7.086;2024-03-25T11:06:05;99460.41;;;14.35;55.49
32131;BME280;18639;50.716;7.086;2024-03-25T11:08:31;99470.13;;;14.33;55.75
32131;BME280;18639;50.716;7.086;2024-03-25T11:10:57;99447.22;;;14.19;55.55
32131;BME280;18639;50.716;7.086;2024-03-25T11:13:23;99429.13;;;14.00;57.67
32131;BME280;18639;50.716;7.086;2024-03-25T11:15:48;99416.81;;;14.02;57.62
32131;BME280;18639;50.716;7.086;2024-03-25T11:18:18;99420.53;;;13.89;55.67
32131;BME280;18639;50.716;7.086;2024-03-25T11:21:25;99446.94;;;14.22;52.81
32131;BME280;18639;50.716;7.086;2024-03-25T11:24:06;99434.88;;;14.03;53.96
32131;BME280;18639;50.716;7.086;2024-03-25T11:26:31;99396.59;;;13.59;53.53
32131;BME280;18639;50.716;7.086;2024-03-25T11:29:00;99433.84;;;13.86;53.72
32131;BME280;18639;50.716;7.086;2024-03-25T11:31:26;99401.81;;;13.59;55.18
32131;BME280;18639;50.716;7.086;2024-03-25T11:33:52;99431.56;;;13.64;52.41
32131;BME280;18639;50.716;7.086;2024-03-25T11:36:18;99427.66;;;13.51;53.49
32131;BME280;18639;50.716;7.086;2024-03-25T11:38:45;99417.97;;;13.43;52.48
32131;BME280;18639;50.716;7.086;2024-03-25T11:41:12;99421.13;;;13.37;52.32
32131;BME280;18639;50.716;7.086;2024-03-25T11:43:37;99417.84;;;13.35;52.25
32131;BME280;18639;50.716;7.086;2024-03-25T11:46:03;99406.81;;;13.14;51.82
32131;BME280;18639;50.716;7.086;2024-03-25T11:48:32;99411.44;;;12.91;53.61
32131;BME280;18639;50.716;7.086;2024-03-25T11:50:58;99378.38;;;12.45;51.99
32131;BME280;18639;50.716;7.086;2024-03-25T11:53:24;99394.09;;;12.53;53.84
32131;BME280;18639;50.716;7.086;2024-03-25T11:55:50;99384.13;;;12.39;54.21
32131;BME280;18639;50.716;7.086;2024-03-25T11:58:16;99381.53;;;12.39;54.25
32131;BME280;18639;50.716;7.086;2024-03-25T12:00:46;99392.84;;;12.57;55.73
32131;BME280;18639;50.716;7.086;2024-03-25T12:03:14;99389.31;;;12.58;57.55
32131;BME280;18639;50.716;7.086;2024-03-25T12:05:40;99380.31;;;12.62;57.19
32131;BME280;18639;50.716;7.086;2024-03-25T12:08:08;99378.41;;;12.64;55.33
32131;BME280;18639;50.716;7.086;2024-03-25T12:10:34;99365.88;;;12.69;55.26
32131;BME280;18639;50.716;7.086;2024-03-25T12:13:19;99371.31;;;12.66;53.11
32131;BME280;18639;50.716;7.086;2024-03-25T12:15:44;99360.41;;;12.62;53.18
32131;BME280;18639;50.716;7.086;2024-03-25T12:18:09;99362.72;;;12.56;54.32
32131;BME280;18639;50.716;7.086;2024-03-25T12:20:35;99368.59;;;12.58;54.82
32131;BME280;18639;50.716;7.086;2024-03-25T12:23:02;99362.28;;;12.51;56.35
32131;BME280;18639;50.716;7.086;2024-03-25T12:25:27;99336.09;;;12.35;56.46
32131;BME280;18639;50.716;7.086;2024-03-25T12:27:52;99344.81;;;12.24;54.01
32131;BME280;18639;50.716;7.086;2024-03-25T12:30:19;99330.22;;;12.13;55.69
32131;BME280;18639;50.716;7.086;2024-03-25T12:32:45;99344.56;;;12.17;55.76
32131;BME280;18639;50.716;7.086;2024-03-25T12:35:15;99339.25;;;12.29;57.13
32131;BME280;18639;50.716;7.086;2024-03-25T12:37:46;99319.69;;;11.96;54.16
32131;BME280;18639;50.716;7.086;2024-03-25T12:40:14;99304.16;;;11.96;53.27
32131;BME280;18639;50.716;7.086;2024-03-25T12:42:52;99305.69;;;12.17;52.52
32131;BME280;18639;50.716;7.086;2024-03-25T12:45:17;99314.84;;;12.41;54.15
32131;BME280;18639;50.716;7.086;2024-03-25T12:47:42;99308.84;;;12.59;54.36
32131;BME280;18639;50.716;7.086;2024-03-25T12:50:08;99308.56;;;12.62;54.95
32131;BME280;18639;50.716;7.086;2024-03-25T12:52:34;99307.75;;;12.62;58.59
32131;BME280;18639;50.716;7.086;2024-03-25T12:54:59;99267.94;;;12.44;57.12
32131;BME280;18639;50.716;7.086;2024-03-25T12:57:25;99308.59;;;12.34;52.15
32131;BME280;18639;50.716;7.086;2024-03-25T12:59:50;99294.41;;;12.38;52.56
32131;BME280;18639;50.716;7.086;2024-03-25T13:02:15;99279.38;;;12.41;52.79
32131;BME280;18639;50.716;7.086;2024-03-25T13:04:40;99289.31;;;12.55;55.18
32131;BME280;18639;50.716;7.086;2024-03-25T13:07:09;99279.66;;;12.48;55.94
32131;BME280;18639;50.716;7.086;2024-03-25T13:09:34;99288.66;;;12.53;56.24
32131;BME280;18639;50.716;7.086;2024-03-25T13:11:59;99285.09;;;12.45;55.43
32131;BME280;18639;50.716;7.086;2024-03-25T13:14:25;99278.41;;;12.52;55.33
32131;BME280;18639;50.716;7.086;2024-03-25T13:16:50;99271.19;;;12.55;54.41